Time;durP1;ratioP1;P1;durP2;ratioP2;P2;SDS_P1;SDS_P2;PMS_P1;PMS_P2;Temp;Humidity;BMP_temperature;BMP_pressure;BME280_temperature;BME280_humidity;BME280_pressure;Samples;Min_cycle;Max_cycle;Signal;HPM_P1;HPM_P2
2022/11/18 00:01:38;;;;;;;2.67;0.77;;;;;;;6.29;100.00;94514.38;4955774;28;20424;-85
2022/11/18 00:04:06;;;;;;;2.77;0.50;;;;;;;6.34;100.00;94512.06;4967712;28;20035;-87
2022/11/18 00:06:32;;;;;;;2.07;0.70;;;;;;;6.38;100.00;94508.13;4952043;28;20392;-87
2022/11/18 00:08:59;;;;;;;1.50;0.70;;;;;;;6.36;100.00;94515.31;4954305;28;20035;-86
2022/11/18 00:14:19;;;;;;;3.43;0.80;;;;;;;6.31;100.00;94517.63;4941465;28;20089;-86
2022/11/18 00:16:46;;;;;;;1.50;0.67;;;;;;;6.23;100.00;94516.88;4953183;28;20019;-87
2022/11/18 00:19:12;;;;;;;2.23;0.90;;;;;;;6.24;100.00;94508.88;4957568;28;20038;-87
2022/11/18 00:21:37;;;;;;;4.23;1.10;;;;;;;6.20;100.00;94504.97;4947954;28;20399;-87
2022/11/18 00:24:03;;;;;;;2.10;0.40;;;;;;;6.13;100.00;94506.66;4938961;28;20031;-87
2022/11/18 00:26:29;;;;;;;2.83;0.83;;;;;;;6.17;100.00;94510.56;4949877;28;20038;-86
2022/11/18 00:28:54;;;;;;;1.03;0.50;;;;;;;6.09;100.00;94508.81;4955623;28;20058;-86
2022/11/18 00:31:20;;;;;;;3.27;0.70;;;;;;;6.11;100.00;94501.63;4938887;28;20039;-87
2022/11/18 00:33:55;;;;;;;3.07;0.70;;;;;;;6.11;100.00;94498.22;4952609;28;20038;-87
2022/11/18 00:36:21;;;;;;;2.07;0.87;;;;;;;6.08;100.00;94499.38;4950471;28;20109;-86
2022/11/18 00:38:46;;;;;;;3.73;0.90;;;;;;;6.05;100.00;94491.09;4971871;28;20125;-87
2022/11/18 00:41:14;;;;;;;1.97;0.80;;;;;;;6.06;100.00;94495.31;4955123;28;20026;-87
2022/11/18 00:43:41;;;;;;;3.53;1.10;;;;;;;5.98;100.00;94492.75;4971721;28;20500;-87
2022/11/18 00:46:10;;;;;;;7.77;2.93;;;;;;;6.03;100.00;94500.88;4955436;28;20039;-86
2022/11/18 00:48:36;;;;;;;12.67;5.17;;;;;;;6.09;100.00;94493.16;4941413;28;20069;-88
2022/11/18 00:51:21;;;;;;;8.17;3.60;;;;;;;6.09;100.00;94497.56;4960797;28;20488;-86
2022/11/18 00:53:48;;;;;;;5.13;2.10;;;;;;;6.06;100.00;94492.69;4948578;28;20066;-86
2022/11/18 00:56:14;;;;;;;9.80;4.10;;;;;;;5.99;100.00;94497.78;4960127;28;20130;-87
2022/11/18 00:58:47;;;;;;;3.50;1.30;;;;;;;6.06;100.00;94497.91;4956975;28;20176;-85
2022/11/18 01:01:12;;;;;;;0.90;0.28;;;;;;;6.06;100.00;94503.94;4956160;28;20030;-86
2022/11/18 01:03:38;;;;;;;1.70;0.80;;;;;;;6.04;100.00;94500.72;4949575;28;20030;-86
2022/11/18 01:06:04;;;;;;;2.43;1.07;;;;;;;6.06;100.00;94500.53;4938320;28;20039;-86
2022/11/18 01:08:29;;;;;;;2.43;0.73;;;;;;;6.05;100.00;94491.09;4945272;28;20113;-86
2022/11/18 01:13:17;;;;;;;2.13;0.40;;;;;;;6.08;100.00;94490.75;4938406;29;20070;-87
2022/11/18 01:13:41;;;;;;;0.33;0.30;;;;;;;6.10;100.00;94489.59;4950112;28;20105;-86
2022/11/18 01:16:06;;;;;;;0.80;0.20;;;;;;;6.04;100.00;94495.50;4954699;28;20472;-86
2022/11/18 01:18:33;;;;;;;2.10;0.27;;;;;;;6.09;100.00;94501.00;4945447;28;20093;-86
2022/11/18 01:21:01;;;;;;;0.10;0.10;;;;;;;6.11;100.00;94493.81;4943064;28;20034;-87
2022/11/18 01:23:27;;;;;;;3.07;0.30;;;;;;;6.13;100.00;94498.84;4945308;28;20085;-86
2022/11/18 01:25:53;;;;;;;0.23;0.20;;;;;;;6.11;100.00;94500.81;4952153;28;20501;-86
2022/11/18 01:28:29;;;;;;;0.27;0.23;;;;;;;6.10;100.00;94502.63;4956032;28;20640;-86
2022/11/18 01:31:02;;;;;;;1.10;0.40;;;;;;;6.10;100.00;94512.22;4975188;28;20172;-86
2022/11/18 01:33:28;;;;;;;;;;;;;;;6.04;100.00;94505.94;4973902;28;20035;-86
2022/11/18 01:35:54;;;;;;;1.77;0.30;;;;;;;6.05;100.00;94511.97;4951137;28;20292;-86
2022/11/18 01:38:20;;;;;;;0.40;0.30;;;;;;;6.02;100.00;94513.09;4948132;29;20031;-87
2022/11/18 01:40:45;;;;;;;1.07;0.30;;;;;;;6.05;100.00;94514.56;4961928;28;20504;-86
2022/11/18 01:43:17;;;;;;;0.57;0.30;;;;;;;6.04;100.00;94505.94;4940274;28;20039;-86
2022/11/18 01:45:45;;;;;;;1.70;0.30;;;;;;;6.05;100.00;94511.97;4959245;28;20039;-86
2022/11/18 01:48:20;;;;;;;1.57;0.30;;;;;;;6.07;100.00;94523.00;4963508;28;20396;-86
2022/11/18 01:50:51;;;;;;;1.37;0.10;;;;;;;6.05;100.00;94515.38;4941651;28;20424;-86
2022/11/18 01:53:24;;;;;;;0.60;0.20;;;;;;;6.06;100.00;94518.78;4958350;28;20058;-86
2022/11/18 01:55:53;;;;;;;0.03;0.03;;;;;;;6.09;100.00;94513.22;4958376;28;20565;-87
2022/11/18 01:58:30;;;;;;;0.80;0.50;;;;;;;6.06;100.00;94508.34;4955920;28;20035;-86
2022/11/18 02:00:56;;;;;;;0.57;0.20;;;;;;;6.06;100.00;94519.59;4953482;28;20038;-86
2022/11/18 02:03:23;;;;;;;1.40;0.50;;;;;;;6.06;100.00;94513.56;4959816;28;20030;-86
2022/11/18 02:05:52;;;;;;;2.67;1.20;;;;;;;6.05;100.00;94517.19;4964680;28;20035;-85
2022/11/18 02:08:19;;;;;;;3.23;1.60;;;;;;;6.04;100.00;94520.78;4960968;28;20043;-85
2022/11/18 02:10:45;;;;;;;1.17;0.53;;;;;;;5.99;100.00;94526.50;4955109;28;20042;-86
2022/11/18 02:13:11;;;;;;;1.40;0.50;;;;;;;6.09;100.00;94521.06;4962958;28;20030;-87
2022/11/18 02:15:49;;;;;;;1.17;0.50;;;;;;;6.10;100.00;94526.13;4966731;28;20050;-86
2022/11/18 02:18:27;;;;;;;1.37;0.30;;;;;;;6.05;100.00;94517.97;4956801;28;20034;-86
2022/11/18 02:21:26;;;;;;;0.50;0.27;;;;;;;6.09;100.00;94526.28;4970308;28;20126;-85
2022/11/18 02:24:13;;;;;;;0.43;0.27;;;;;;;6.06;100.00;94524.81;4941669;28;20034;-85
2022/11/18 02:26:58;;;;;;;1.60;0.63;;;;;;;6.07;100.00;94528.22;4944904;28;20039;-85
2022/11/18 02:29:45;;;;;;;1.03;0.33;;;;;;;6.06;100.00;94524.00;4950283;28;20074;-86
2022/11/18 02:32:25;;;;;;;1.07;0.40;;;;;;;6.02;100.00;94523.53;4964435;28;20064;-86
2022/11/18 02:34:54;;;;;;;0.50;0.20;;;;;;;6.00;100.00;94528.16;4954765;28;20046;-85
2022/11/18 02:37:33;;;;;;;0.50;0.30;;;;;;;6.08;100.00;94532.50;4951072;28;20034;-86
2022/11/18 02:40:04;;;;;;;0.67;0.30;;;;;;;6.00;100.00;94524.69;4933347;28;20071;-84
2022/11/18 02:42:38;;;;;;;0.93;0.30;;;;;;;5.97;100.00;94525.88;4957458;28;20047;-86
2022/11/18 02:45:13;;;;;;;0.93;0.30;;;;;;;6.01;100.00;94532.38;4953721;28;20118;-86
2022/11/18 02:47:42;;;;;;;0.40;0.20;;;;;;;6.01;100.00;94531.56;4940091;28;20141;-85
2022/11/18 02:50:12;;;;;;;0.30;0.30;;;;;;;5.98;100.00;94531.91;4977518;28;20497;-85
2022/11/18 02:52:41;;;;;;;1.13;0.40;;;;;;;6.03;100.00;94534.78;4948707;28;20039;-85
2022/11/18 02:55:10;;;;;;;0.97;0.40;;;;;;;5.99;100.00;94538.75;4953805;28;20035;-86
2022/11/18 02:57:37;;;;;;;0.90;0.60;;;;;;;6.00;100.00;94538.59;4950111;28;20027;-86
2022/11/18 03:00:04;;;;;;;0.87;0.50;;;;;;;5.98;100.00;94537.94;4923881;29;20023;-86
2022/11/18 03:02:46;;;;;;;1.27;0.50;;;;;;;6.00;100.00;94540.34;4952695;28;20463;-86
2022/11/18 03:05:19;;;;;;;1.83;0.50;;;;;;;5.96;100.00;94545.09;4950740;28;20097;-86
2022/11/18 03:07:52;;;;;;;0.60;0.30;;;;;;;5.98;100.00;94544.94;4963101;28;20470;-86
2022/11/18 03:10:22;;;;;;;2.03;0.65;;;;;;;5.95;100.00;94553.94;4943355;28;20034;-86
2022/11/18 03:13:04;;;;;;;2.43;0.53;;;;;;;5.95;100.00;94553.94;4943361;28;20452;-86
2022/11/18 03:15:56;;;;;;;1.53;0.40;;;;;;;5.94;100.00;94554.13;4960808;28;20121;-86
2022/11/18 03:18:40;;;;;;;0.90;0.37;;;;;;;5.96;100.00;94554.72;4899755;29;20047;-86
2022/11/18 03:21:28;;;;;;;2.27;0.60;;;;;;;5.91;100.00;94563.88;4978670;28;20539;-86
2022/11/18 03:24:04;;;;;;;1.30;0.50;;;;;;;5.89;100.00;94571.03;4958158;28;20125;-85
2022/11/18 03:26:38;;;;;;;1.60;0.60;;;;;;;5.90;100.00;94567.47;4969205;28;20482;-86
2022/11/18 03:29:12;;;;;;;2.20;0.80;;;;;;;5.94;100.00;94567.16;4952365;28;20543;-86
2022/11/18 03:31:46;;;;;;;0.70;0.40;;;;;;;5.88;100.00;94564.19;4941984;28;20035;-85
2022/11/18 03:34:36;;;;;;;1.60;0.70;;;;;;;5.88;100.00;94574.63;4939291;28;20031;-85
2022/11/18 03:37:07;;;;;;;1.53;0.60;;;;;;;5.88;100.00;94574.63;4950600;28;20819;-86
2022/11/18 03:39:38;;;;;;;2.37;0.60;;;;;;;5.89;100.00;94573.66;4939521;29;20066;-86
2022/11/18 03:42:23;;;;;;;1.80;0.67;;;;;;;5.88;100.00;94573.84;4940572;28;20045;-86
2022/11/18 03:44:56;;;;;;;1.87;0.80;;;;;;;5.87;100.00;94574.81;4958490;28;20045;-85
2022/11/18 03:47:29;;;;;;;1.50;1.00;;;;;;;5.91;100.00;94578.72;4960817;28;20042;-86
2022/11/18 03:50:05;;;;;;;1.33;0.60;;;;;;;5.94;100.00;94580.19;4950091;28;20142;-86
2022/11/18 03:52:36;;;;;;;1.13;0.70;;;;;;;5.94;100.00;94567.16;4959828;28;20034;-85
2022/11/18 03:55:18;;;;;;;1.13;0.60;;;;;;;5.88;100.00;94559.00;4969054;28;20162;-85
2022/11/18 03:58:09;;;;;;;1.77;0.80;;;;;;;6.01;100.00;94565.47;4958276;28;20499;-86
2022/11/18 04:00:46;;;;;;;1.97;1.00;;;;;;;5.97;100.00;94572.00;4963704;28;20038;-85
2022/11/18 04:03:12;;;;;;;2.23;1.03;;;;;;;5.94;100.00;94575.78;4950862;28;20061;-85
2022/11/18 04:05:42;;;;;;;1.77;1.17;;;;;;;5.86;100.00;94584.41;4956111;28;20039;-85
2022/11/18 04:08:20;;;;;;;1.70;0.97;;;;;;;5.90;100.00;94582.28;4955111;28;20122;-85
2022/11/18 04:11:06;;;;;;;3.13;0.97;;;;;;;5.85;100.00;94588.03;4961187;28;20066;-86
2022/11/18 04:13:35;;;;;;;2.67;1.17;;;;;;;5.88;100.00;94587.69;4952738;28;20027;-85
2022/11/18 04:16:03;;;;;;;1.77;0.90;;;;;;;5.86;100.00;94587.03;4955705;28;20039;-86
2022/11/18 04:18:28;;;;;;;1.93;1.03;;;;;;;5.88;100.00;94595.50;4956873;28;20037;-85
2022/11/18 04:21:08;;;;;;;2.50;0.90;;;;;;;5.90;100.00;94601.38;4938841;28;20548;-85
2022/11/18 04:23:34;;;;;;;2.47;0.70;;;;;;;5.89;100.00;94602.34;4948864;29;20409;-84
2022/11/18 04:26:02;;;;;;;1.37;0.90;;;;;;;5.86;100.00;94607.91;4952456;28;20030;-85
2022/11/18 04:28:28;;;;;;;3.70;0.90;;;;;;;5.89;100.00;94617.19;4953681;28;20177;-85
2022/11/18 04:30:53;;;;;;;1.93;0.60;;;;;;;5.86;100.00;94617.53;4953805;28;20130;-86
2022/11/18 04:33:19;;;;;;;2.63;0.57;;;;;;;5.85;100.00;94621.13;4945362;29;20402;-86
2022/11/18 04:35:46;;;;;;;1.17;0.50;;;;;;;5.87;100.00;94627.81;4946095;28;20035;-85
2022/11/18 04:38:11;;;;;;;3.27;0.70;;;;;;;5.86;100.00;94634.00;4955065;28;20042;-86
2022/11/18 04:40:40;;;;;;;2.27;0.80;;;;;;;5.86;100.00;94634.00;4942850;28;20039;-86
2022/11/18 04:43:08;;;;;;;4.00;0.80;;;;;;;5.88;100.00;94637.25;4953152;28;20031;-85
2022/11/18 04:45:33;;;;;;;1.70;0.80;;;;;;;5.84;100.00;94635.16;4954946;28;20105;-86
2022/11/18 04:47:59;;;;;;;1.30;0.50;;;;;;;5.80;100.00;94637.31;4963222;28;20097;-86
2022/11/18 04:50:31;;;;;;;1.70;0.40;;;;;;;5.79;100.00;94640.88;4937912;28;20173;-86
2022/11/18 04:52:56;;;;;;;2.03;0.50;;;;;;;5.76;100.00;94646.41;4954233;28;20566;-86
2022/11/18 04:55:22;;;;;;;1.97;0.43;;;;;;;5.77;100.00;94645.47;4947624;28;20026;-85
2022/11/18 04:57:55;;;;;;;0.90;0.37;;;;;;;5.67;100.00;94643.03;4955109;28;20042;-86
2022/11/18 05:00:25;;;;;;;3.55;0.55;;;;;;;5.64;100.00;94642.56;4954768;28;20038;-85
2022/11/18 05:02:50;;;;;;;0.37;0.20;;;;;;;5.63;100.00;94640.91;4962742;28;20499;-86
2022/11/18 05:05:16;;;;;;;3.20;0.40;;;;;;;5.63;100.00;94644.38;4961818;28;20023;-86
2022/11/18 05:07:41;;;;;;;3.33;1.13;;;;;;;5.60;100.00;94649.91;4939165;28;20026;-85
2022/11/18 05:10:08;;;;;;;7.47;3.43;;;;;;;5.66;100.00;94645.81;4961877;28;20038;-86
2022/11/18 05:12:49;;;;;;;5.87;2.87;;;;;;;5.65;100.00;94652.00;4956728;28;20031;-87
2022/11/18 05:15:21;;;;;;;3.07;0.97;;;;;;;6.04;100.00;94651.25;4945351;28;20030;-87
2022/11/18 05:18:09;;;;;;;1.50;0.40;;;;;;;6.03;100.00;94649.59;4984388;28;20042;-87
2022/11/18 05:20:50;;;;;;;1.13;0.20;;;;;;;5.74;100.00;94658.03;4952295;28;20086;-86
2022/11/18 05:23:16;;;;;;;0.60;0.30;;;;;;;5.74;100.00;94655.41;4954609;28;20042;-86
2022/11/18 05:25:43;;;;;;;0.73;0.53;;;;;;;5.65;100.00;94657.22;4942891;28;20027;-86
2022/11/18 05:28:13;;;;;;;1.13;0.43;;;;;;;5.56;100.00;94658.22;4950661;28;20038;-86
2022/11/18 05:30:41;;;;;;;1.50;0.70;;;;;;;5.59;100.00;94668.31;4938129;28;20034;-86
2022/11/18 05:33:07;;;;;;;3.00;0.40;;;;;;;5.45;100.00;94675.03;4945592;28;20039;-86
2022/11/18 05:35:36;;;;;;;5.87;0.60;;;;;;;5.42;100.00;94672.75;4958708;28;20061;-85
2022/11/18 05:38:03;;;;;;;0.63;0.30;;;;;;;5.38;100.00;94676.69;4961578;28;20022;-86
2022/11/18 05:40:29;;;;;;;0.10;0.10;;;;;;;5.32;100.00;94672.94;4965134;28;20035;-86
2022/11/18 05:43:10;;;;;;;0.53;0.13;;;;;;;5.28;100.00;94687.28;4964148;28;20027;-89
2022/11/18 05:45:37;;;;;;;0.90;0.20;;;;;;;5.19;100.00;94690.84;4966488;28;20121;-88
2022/11/18 05:48:03;;;;;;;0.60;0.20;;;;;;;5.18;100.00;94692.66;4966395;28;20046;-89
2022/11/18 05:50:45;;;;;;;0.20;0.10;;;;;;;5.13;100.00;94694.13;4955348;28;20039;-89
2022/11/18 05:53:11;;;;;;;3.30;1.73;;;;;;;5.12;100.00;94697.72;4927242;29;20054;-92
2022/11/18 05:56:14;;;;;;;5.53;2.57;;;;;;;5.10;100.00;94708.31;4945336;28;20061;-93
2022/11/18 06:01:35;;;;;;;5.40;1.40;;;;;;;5.09;100.00;94708.44;4955440;26;20050;-87
2022/11/18 06:04:08;;;;;;;4.37;1.70;;;;;;;5.10;100.00;94710.91;4938228;28;20043;-89
2022/11/18 06:06:34;;;;;;;3.70;0.73;;;;;;;5.11;100.00;94711.72;4950802;29;20031;-89
2022/11/18 06:09:06;;;;;;;3.30;1.00;;;;;;;5.07;100.00;94720.84;4936846;28;20069;-87
2022/11/18 06:11:39;;;;;;;0.77;0.30;;;;;;;5.01;100.00;94721.50;4929048;28;20098;-87
2022/11/18 06:14:11;;;;;;;1.07;0.20;;;;;;;5.01;100.00;94726.69;4917955;28;20034;-87
2022/11/18 06:16:40;;;;;;;1.13;0.30;;;;;;;5.01;100.00;94727.50;4942389;28;20125;-86
2022/11/18 06:19:09;;;;;;;1.60;0.43;;;;;;;5.01;100.00;94726.69;4943962;28;20039;-87
2022/11/18 06:21:36;;;;;;;2.00;0.30;;;;;;;5.00;100.00;94728.50;4925208;29;20392;-87
2022/11/18 06:24:02;;;;;;;0.10;0.10;;;;;;;4.97;100.00;94732.22;4926538;28;20034;-87
2022/11/18 06:26:28;;;;;;;0.30;0.10;;;;;;;4.99;100.00;94733.84;4947440;28;20034;-87
2022/11/18 06:28:57;;;;;;;0.50;0.10;;;;;;;5.01;100.00;94735.34;4938936;29;20035;-86
2022/11/18 06:31:23;;;;;;;0.20;0.10;;;;;;;4.95;100.00;94743.78;4940893;29;20087;-88
2022/11/18 06:33:48;;;;;;;0.67;0.13;;;;;;;4.93;100.00;94743.16;4934696;29;20031;-88
2022/11/18 06:36:15;;;;;;;1.90;0.20;;;;;;;4.92;100.00;94750.13;4946939;28;20329;-87
2022/11/18 06:38:41;;;;;;;2.23;0.30;;;;;;;4.99;100.00;94746.88;4924063;29;20105;-87
2022/11/18 06:41:06;;;;;;;0.13;0.13;;;;;;;4.97;100.00;94749.66;4946278;29;20118;-87
2022/11/18 06:43:40;;;;;;;0.20;0.10;;;;;;;4.97;100.00;94757.47;4948730;28;20436;-87
2022/11/18 06:49:02;;;;;;;1.27;0.30;;;;;;;4.88;100.00;94761.84;4942143;28;20027;-87
2022/11/18 06:51:28;;;;;;;0.67;0.30;;;;;;;4.87;100.00;94768.03;4940474;28;20069;-87
2022/11/18 06:53:54;;;;;;;0.97;0.43;;;;;;;4.83;100.00;94768.50;4953213;28;20054;-86
2022/11/18 06:56:21;;;;;;;1.60;0.40;;;;;;;4.88;100.00;94767.06;4965982;28;20058;-92
2022/11/18 06:58:52;;;;;;;2.10;0.73;;;;;;;4.82;100.00;94778.09;4961643;28;20472;-92
2022/11/18 07:01:20;;;;;;;1.70;0.63;;;;;;;4.82;100.00;94782.50;4967095;28;20070;-91
2022/11/18 07:04:08;;;;;;;1.17;0.60;;;;;;;4.82;100.00;94792.94;4947346;28;20035;-92
2022/11/18 07:06:35;;;;;;;1.10;0.40;;;;;;;4.85;100.00;94801.22;4947059;29;20024;-90
2022/11/18 07:09:06;;;;;;;0.93;0.40;;;;;;;4.86;100.00;94796.84;4934659;29;20067;-89
2022/11/18 07:11:32;;;;;;;1.53;0.50;;;;;;;4.86;100.00;94797.69;4954973;28;20097;-91
2022/11/18 07:13:57;;;;;;;1.93;0.60;;;;;;;4.89;100.00;94802.53;4961001;28;20035;-90
2022/11/18 07:16:26;;;;;;;1.23;0.40;;;;;;;4.88;100.00;94800.09;4960674;28;20550;-90
2022/11/18 07:18:53;;;;;;;2.63;0.60;;;;;;;4.90;100.00;94798.16;4939612;29;20046;-90
2022/11/18 07:21:23;;;;;;;4.07;0.90;;;;;;;4.92;100.00;94811.84;4941244;29;20039;-90
2022/11/18 07:23:50;;;;;;;3.23;1.00;;;;;;;4.92;100.00;94807.44;4933531;29;20058;-89
2022/11/18 07:26:29;;;;;;;1.23;0.80;;;;;;;4.96;100.00;94808.78;4944685;28;20455;-90
2022/11/18 07:28:55;;;;;;;6.67;1.93;;;;;;;5.71;100.00;94813.06;4933136;29;20035;-87
2022/11/18 07:31:21;;;;;;;50.20;30.33;;;;;;;6.52;100.00;94817.31;4938222;29;20031;-84
2022/11/18 07:33:47;;;;;;;32.00;19.80;;;;;;;6.50;100.00;94815.84;4946461;28;20486;-84
2022/11/18 07:36:17;;;;;;;33.27;14.10;;;;;;;6.85;100.00;94823.22;4941872;28;20039;-89
2022/11/18 07:38:43;;;;;;;11.10;4.07;;;;;;;7.04;100.00;94823.75;4936570;29;20039;-86
2022/11/18 07:41:15;;;;;;;31.23;5.27;;;;;;;7.44;100.00;94830.53;4931293;28;20027;-86
2022/11/18 07:43:41;;;;;;;75.30;8.93;;;;;;;7.27;100.00;94826.41;4925796;29;20039;-86
2022/11/18 07:46:12;;;;;;;202.83;24.73;;;;;;;7.40;100.00;94821.41;4937041;28;20031;-86
2022/11/18 07:48:39;;;;;;;156.43;19.00;;;;;;;7.50;100.00;94823.78;4920386;29;20042;-89
2022/11/18 07:51:05;;;;;;;248.77;30.20;;;;;;;7.72;100.00;94819.56;4933074;28;20039;-84
2022/11/18 07:53:33;;;;;;;149.17;15.23;;;;;;;7.60;100.00;94815.72;4928891;29;20034;-86
2022/11/18 07:56:00;;;;;;;307.43;34.37;;;;;;;7.61;100.00;94823.38;4934611;28;20034;-86
2022/11/18 07:58:28;;;;;;;396.37;47.23;;;;;;;7.78;100.00;94818.84;4941251;28;20030;-87
2022/11/18 08:00:54;;;;;;;449.73;54.23;;;;;;;7.90;100.00;94812.19;4933779;28;20563;-86
2022/11/18 08:03:25;;;;;;;193.53;22.10;;;;;;;7.66;100.00;94815.00;4933591;29;20039;-87
2022/11/18 08:05:50;;;;;;;135.73;18.23;;;;;;;7.41;100.00;94817.81;4934540;28;20043;-86
2022/11/18 08:08:16;;;;;;;469.17;65.60;;;;;;;7.98;100.00;94824.38;4941499;28;20045;-87
2022/11/18 08:10:42;;;;;;;265.57;31.87;;;;;;;7.52;100.00;94819.22;4912171;29;20047;-87
2022/11/18 08:13:09;;;;;;;108.80;13.67;;;;;;;7.24;100.00;94824.97;4932582;29;20493;-88
2022/11/18 08:15:42;;;;;;;167.87;23.17;;;;;;;7.73;100.00;94827.22;4939545;29;20480;-88
2022/11/18 08:18:08;;;;;;;107.60;13.40;;;;;;;7.53;100.00;94831.28;4942077;28;20046;-87
2022/11/18 08:20:35;;;;;;;378.40;47.90;;;;;;;7.73;100.00;94831.63;4944059;28;20058;-88
2022/11/18 08:23:01;;;;;;;485.90;58.63;;;;;;;7.80;100.00;94829.94;4927383;28;20588;-87
2022/11/18 08:25:27;;;;;;;488.90;63.53;;;;;;;7.65;100.00;94840.38;4930445;28;20039;-87
2022/11/18 08:27:52;;;;;;;130.00;16.37;;;;;;;7.25;100.00;94833.63;4931534;28;20169;-87
2022/11/18 08:30:18;;;;;;;424.73;63.47;;;;;;;7.89;100.00;94841.16;4946001;28;20400;-86
2022/11/18 08:32:44;;;;;;;152.73;24.63;;;;;;;7.54;100.00;94833.75;4930490;29;20391;-88
2022/11/18 08:35:09;;;;;;;90.20;13.13;;;;;;;7.48;100.00;94838.88;4940510;28;20031;-85
2022/11/18 08:37:35;;;;;;;70.80;10.30;;;;;;;8.07;100.00;94839.03;4921356;28;20034;-87
2022/11/18 08:40:01;;;;;;;170.30;20.93;;;;;;;8.03;100.00;94833.34;4934445;28;20121;-87
2022/11/18 08:42:26;;;;;;;254.23;60.80;;;;;;;8.27;100.00;94840.13;4951879;28;20488;-88
2022/11/18 08:44:59;;;;;;;259.20;56.87;;;;;;;8.41;100.00;94837.75;4919096;29;20659;-93
2022/11/18 08:47:25;;;;;;;238.95;57.70;;;;;;;8.43;100.00;94844.44;4937296;29;20405;-91
2022/11/18 08:49:52;;;;;;;160.93;38.07;;;;;;;8.37;100.00;94839.06;4921966;29;20049;-95
2022/11/18 08:52:18;;;;;;;46.80;8.90;;;;;;;8.55;100.00;94846.59;4915994;28;20043;-87
2022/11/18 08:54:43;;;;;;;61.00;10.80;;;;;;;8.35;100.00;94844.50;4941682;28;20481;-92
2022/11/18 08:57:11;;;;;;;55.10;16.83;;;;;;;8.29;100.00;94849.63;4927043;28;20118;-93
2022/11/18 08:59:37;;;;;;;97.23;34.60;;;;;;;8.67;100.00;94845.97;4934997;28;20556;-91
2022/11/18 09:02:18;;;;;;;52.07;24.70;;;;;;;8.38;100.00;94851.19;4948031;28;20038;-90
2022/11/18 09:04:47;;;;;;;131.37;74.50;;;;;;;8.86;100.00;94849.84;4939217;29;20035;-92
2022/11/18 09:07:12;;;;;;;116.70;70.13;;;;;;;8.19;100.00;94858.56;4924493;28;20038;-86
2022/11/18 09:09:42;;;;;;;32.90;13.60;;;;;;;8.22;100.00;94863.44;4950346;28;20038;-91
2022/11/18 09:12:08;;;;;;;54.77;18.90;;;;;;;7.92;100.00;94861.75;4939428;29;20059;-90
2022/11/18 09:14:34;;;;;;;50.50;9.93;;;;;;;7.80;100.00;94869.19;4944534;29;20183;-89
2022/11/18 09:17:14;;;;;;;30.20;6.17;;;;;;;7.37;100.00;94870.63;4943735;28;20124;-92
2022/11/18 09:19:51;;;;;;;16.43;2.30;;;;;;;6.94;100.00;94878.03;4950961;29;20031;-94
2022/11/18 09:22:20;;;;;;;147.37;22.20;;;;;;;7.55;100.00;94884.25;4949356;29;20362;-92
2022/11/18 09:24:46;;;;;;;207.47;27.93;;;;;;;7.74;100.00;94885.59;4944422;29;20046;-93
2022/11/18 09:27:12;;;;;;;177.17;23.20;;;;;;;7.78;100.00;94886.91;4938115;28;20035;-94
2022/11/18 09:29:40;;;;;;;192.37;22.23;;;;;;;7.51;100.00;94896.03;4941870;28;20663;-93
2022/11/18 09:32:06;;;;;;;283.37;35.27;;;;;;;7.56;100.00;94904.19;4938868;28;20047;-94
2022/11/18 09:34:34;;;;;;;413.13;46.90;;;;;;;7.73;100.00;94899.66;4945452;29;20023;-92
2022/11/18 09:37:01;;;;;;;212.57;22.97;;;;;;;7.49;100.00;94913.72;4944401;28;20039;-94
2022/11/18 09:39:35;;;;;;;342.63;36.77;;;;;;;7.24;100.00;94911.25;4955057;28;20035;-89
2022/11/18 09:42:40;;;;;;;71.93;9.77;;;;;;;7.48;100.00;94917.34;4933392;28;20032;-87
2022/11/18 09:45:17;;;;;;;527.67;62.57;;;;;;;7.00;100.00;94908.72;4921772;28;20040;-89
2022/11/18 09:47:42;;;;;;;708.87;82.47;;;;;;;7.56;100.00;94925.13;4945406;29;20037;-93
2022/11/18 09:50:18;;;;;;;504.63;61.47;;;;;;;7.27;100.00;94929.19;4922495;28;20027;-94
2022/11/18 09:52:59;;;;;;;472.87;50.23;;;;;;;7.75;100.00;94931.72;4917166;29;20039;-93
2022/11/18 09:55:37;;;;;;;274.90;34.17;;;;;;;7.23;100.00;94929.72;4949518;28;20026;-93
2022/11/18 09:58:04;;;;;;;374.53;42.00;;;;;;;7.59;100.00;94935.25;4933949;29;20077;-93
2022/11/18 10:00:31;;;;;;;140.70;17.13;;;;;;;7.77;100.00;94937.59;4925197;29;20027;-92
2022/11/18 10:02:57;;;;;;;414.60;49.77;;;;;;;7.74;100.00;94943.97;4942042;28;20039;-92
2022/11/18 10:05:51;;;;;;;291.80;29.03;;;;;;;7.40;100.00;94949.56;4936319;28;20035;-93
2022/11/18 10:08:56;;;;;;;453.30;52.20;;;;;;;7.40;100.00;94953.97;4926471;29;20035;-92
2022/11/18 10:11:25;;;;;;;262.90;25.73;;;;;;;7.43;100.00;94956.25;4937164;28;20200;-93
2022/11/18 10:14:09;;;;;;;824.93;232.23;;;;;;;8.04;100.00;94954.56;4936303;28;20046;-95
2022/11/18 10:17:02;;;;;;;803.90;311.40;;;;;;;8.46;100.00;94966.41;4946136;28;20038;-86
2022/11/18 10:20:20;;;;;;;554.95;138.32;;;;;;;8.31;100.00;94958.44;4942600;29;20037;-92
2022/11/18 10:22:48;;;;;;;404.80;56.80;;;;;;;8.74;100.00;94951.69;4960045;28;20039;-90
2022/11/18 10:25:38;;;;;;;63.70;11.60;;;;;;;8.57;100.00;94947.63;4933728;28;20107;-90
2022/11/18 10:28:29;;;;;;;274.80;42.73;;;;;;;9.14;100.00;94957.50;4950413;28;20047;-91
2022/11/18 10:31:12;;;;;;;156.73;26.23;;;;;;;9.03;100.00;94944.06;4931757;29;20054;-92
2022/11/18 10:33:49;;;;;;;271.23;40.00;;;;;;;9.40;100.00;94945.75;4943796;29;20031;-91
2022/11/18 10:36:33;;;;;;;80.10;13.30;;;;;;;9.52;100.00;94949.50;4932184;29;20051;-91
2022/11/18 10:47:26;;;;;;;64.77;11.07;;;;;;;8.52;100.00;94952.59;4960160;28;20046;-90
2022/11/18 10:50:02;;;;;;;35.83;8.23;;;;;;;8.60;100.00;94957.75;4929186;28;20038;-93
2022/11/18 10:53:00;;;;;;;54.10;9.13;;;;;;;9.20;100.00;94959.41;4932734;29;20112;-92
2022/11/18 11:27:49;;;;;;;563.87;77.67;;;;;;;8.46;100.00;94956.72;4927985;28;20106;-87
2022/11/18 11:30:20;;;;;;;709.70;98.27;;;;;;;8.59;100.00;94956.13;4932651;28;20039;-89
2022/11/18 11:40:52;;;;;;;407.40;50.40;;;;;;;8.33;100.00;94964.34;4946624;28;20039;-87
2022/11/18 11:44:09;;;;;;;50.87;7.27;;;;;;;7.62;100.00;94968.91;4943513;28;20082;-87
2022/11/18 11:51:31;;;;;;;278.10;30.13;;;;;;;7.85;100.00;94974.19;4929860;29;20161;-90
2022/11/18 11:55:26;;;;;;;805.67;88.73;;;;;;;8.34;100.00;94980.88;4911645;29;20502;-88
2022/11/18 11:58:08;;;;;;;397.00;35.87;;;;;;;8.53;100.00;94980.41;4939224;28;20036;-88
2022/11/18 12:01:00;;;;;;;1424.07;156.13;;;;;;;8.66;100.00;94974.56;4925084;28;20027;-91
2022/11/18 12:03:46;;;;;;;1128.53;115.83;;;;;;;8.96;100.00;94976.25;4936025;29;20074;-88
2022/11/18 12:06:14;;;;;;;589.83;58.77;;;;;;;8.95;100.00;94971.16;4958053;28;20404;-86
2022/11/18 12:08:59;;;;;;;1689.83;181.50;;;;;;;9.07;100.00;94967.09;4951583;29;20027;-88
2022/11/18 12:12:00;;;;;;;1409.37;148.93;;;;;;;8.54;100.00;94970.75;4939007;29;20042;-88
2022/11/18 12:14:49;;;;;;;1999.90;232.25;;;;;;;9.28;100.00;94965.56;4935254;29;20396;-89
2022/11/18 12:17:56;;;;;;;1999.90;375.93;;;;;;;9.09;100.00;94972.19;4948636;28;20059;-90
2022/11/18 12:20:53;;;;;;;1403.97;141.63;;;;;;;8.82;100.00;94973.59;4934773;29;20035;-89
2022/11/18 12:23:27;;;;;;;1999.90;576.77;;;;;;;9.16;100.00;94976.50;4933535;29;20042;-90
2022/11/18 12:26:08;;;;;;;1519.60;165.27;;;;;;;9.30;100.00;94964.38;4933009;28;20039;-90
2022/11/18 12:28:36;;;;;;;1623.20;163.57;;;;;;;8.92;100.00;94968.88;4950191;28;20031;-87
2022/11/18 12:31:17;;;;;;;437.30;75.13;;;;;;;8.68;100.00;94968.13;4926571;29;20031;-90
2022/11/18 12:34:30;;;;;;;984.40;117.20;;;;;;;8.85;100.00;94963.59;4944443;29;20050;-86
2022/11/18 12:37:24;;;;;;;450.52;42.30;;;;;;;9.25;100.00;94966.72;4930038;29;20127;-90
2022/11/18 12:40:05;;;;;;;420.30;76.20;;;;;;;9.54;100.00;94960.63;4952645;28;20094;-88
2022/11/18 12:46:06;;;;;;;173.47;28.07;;;;;;;9.25;100.00;94963.28;4958908;28;20035;-86
2022/11/18 12:48:34;;;;;;;36.23;12.27;;;;;;;9.03;100.00;94971.09;4941376;28;20065;-87
2022/11/18 12:51:19;;;;;;;112.50;13.23;;;;;;;9.06;100.00;94975.16;4938358;28;20042;-84
2022/11/18 12:54:36;;;;;;;26.50;5.47;;;;;;;9.08;100.00;94968.72;4925153;29;20050;-83
2022/11/18 12:57:11;;;;;;;26.80;5.00;;;;;;;8.57;100.00;94973.81;4950748;28;20043;-90